Whitewater, Montana
Current Conditions -  °F | °C
As of 6:53 PM on Tuesday 21 Oct 2014 (Local Time) from KGGW Reporting Station
Overcast Overcast  
Wind Chill: 62°   Ceiling: 11000
Heat Index: 62°   Visibility: 10mi
Dew Point: 42°   Wind: 17mph
Humidity: 48%   Direction: 260°W
Pressure: 29.64"   Gusts: NA
Location:  48.76°N, 107.62°W
Report Text: KGGW 220053Z AUTO 26015KT 10SM FEW065 OVC110 17/06 A2964 RMK AO2 PK WND 26026/0041 SLP040 T01670056
Loading
Personal Weather Stations






























Interactive Weather Map
Tropical Storm Tracking
New forecast layout! Learn more

10-Day Weather Forecast

Advertisements
Track Severe Weather on mobile